Time;durP1;ratioP1;P1;durP2;ratioP2;P2;SDS_P1;SDS_P2;PMS_P1;PMS_P2;Temp;Humidity;BMP_temperature;BMP_pressure;BME280_temperature;BME280_humidity;BME280_pressure;Samples;Min_cycle;Max_cycle;Signal;HPM_P1;HPM_P2
2023/05/24 00:04:20;;;;;;;17.07;6.77;;;;;;;7.73;100.00;96784.94;10578346;28;20554;-66
2023/05/24 00:09:21;;;;;;;21.80;7.00;;;;;;;7.82;100.00;96781.50;10577898;28;20236;-66
2023/05/24 00:14:21;;;;;;;20.23;7.03;;;;;;;7.69;100.00;96778.38;10577815;28;20181;-66
2023/05/24 00:19:22;;;;;;;16.20;7.87;;;;;;;7.84;100.00;96778.78;10577859;28;20216;-66
2023/05/24 00:24:22;;;;;;;22.80;8.17;;;;;;;7.78;100.00;96784.53;10577193;28;20675;-66
2023/05/24 00:29:22;;;;;;;24.93;7.57;;;;;;;7.82;100.00;96789.34;10532077;22;20266;-67
2023/05/24 00:34:23;;;;;;;24.47;7.97;;;;;;;7.66;100.00;96796.91;10493038;28;20205;-66
2023/05/24 00:39:23;;;;;;;20.33;7.50;;;;;;;7.67;100.00;96796.78;10525075;28;20625;-66
2023/05/24 00:44:23;;;;;;;20.43;6.97;;;;;;;7.69;100.00;96801.84;10517054;28;20306;-66
2023/05/24 00:49:24;;;;;;;27.17;6.70;;;;;;;7.56;100.00;96798.66;10535028;28;20215;-67
2023/05/24 00:54:25;;;;;;;22.33;7.50;;;;;;;7.44;100.00;96793.59;10534877;28;20293;-66
2023/05/24 00:59:26;;;;;;;19.63;6.53;;;;;;;7.49;100.00;96803.59;10516883;28;20198;-66
2023/05/24 01:04:26;;;;;;;20.87;5.70;;;;;;;7.40;100.00;96802.63;10516373;28;20199;-66
2023/05/24 01:09:43;;;;;;;19.67;6.07;;;;;;;7.38;100.00;96803.72;10534217;28;20567;-66
2023/05/24 01:14:57;;;;;;;20.43;7.33;;;;;;;7.19;100.00;96805.31;10516368;28;20186;-66
2023/05/24 01:20:05;;;;;;;22.97;5.13;;;;;;;7.07;100.00;96791.56;10499616;28;20239;-66
2023/05/24 01:25:21;;;;;;;19.23;5.30;;;;;;;7.09;100.00;96791.44;10534051;28;20195;-66
2023/05/24 01:30:21;;;;;;;19.87;6.63;;;;;;;7.05;100.00;96798.69;10515933;28;20648;-66
2023/05/24 01:35:22;;;;;;;20.03;6.47;;;;;;;7.05;100.00;96806.50;10503922;28;20197;-66
2023/05/24 01:40:22;;;;;;;20.03;6.07;;;;;;;7.17;100.00;96811.59;10523077;28;20560;-66
2023/05/24 01:45:54;;;;;;;16.67;5.73;;;;;;;7.09;100.00;96804.44;10541499;28;20182;-66
2023/05/24 01:50:58;;;;;;;20.47;6.00;;;;;;;7.09;100.00;96802.69;10503259;28;20599;-66
2023/05/24 01:56:01;;;;;;;20.93;5.87;;;;;;;7.13;100.00;96804.06;10506493;28;20654;-66
2023/05/24 02:01:01;;;;;;;21.33;5.77;;;;;;;7.07;100.00;96803.78;10522741;28;20182;-66
2023/05/24 02:06:02;;;;;;;21.20;5.47;;;;;;;6.98;100.00;96805.38;10540518;28;20684;-66
2023/05/24 02:11:02;;;;;;;19.40;4.90;;;;;;;6.89;100.00;96799.19;10540505;28;20688;-66
2023/05/24 02:16:03;;;;;;;25.47;4.93;;;;;;;6.74;100.00;96801.31;10522074;28;20271;-67
2023/05/24 02:21:04;;;;;;;19.53;5.03;;;;;;;6.75;100.00;96795.16;10539986;28;20175;-67
2023/05/24 02:26:05;;;;;;;12.27;4.87;;;;;;;6.71;100.00;96793.78;10539379;28;20235;-66
2023/05/24 02:31:05;;;;;;;23.37;4.93;;;;;;;6.71;100.00;96796.38;10539591;28;20823;-66
2023/05/24 02:36:06;;;;;;;23.27;4.53;;;;;;;6.69;100.00;96790.47;10521059;28;20214;-66
2023/05/24 02:41:07;;;;;;;20.50;4.27;;;;;;;6.69;100.00;96776.63;10539184;28;20720;-66
2023/05/24 02:46:08;;;;;;;17.97;4.30;;;;;;;6.65;100.00;96778.69;10538747;28;20219;-66
2023/05/24 02:51:08;;;;;;;19.07;5.50;;;;;;;6.48;100.00;96774.91;10537226;28;20218;-66
2023/05/24 02:56:10;;;;;;;18.83;4.90;;;;;;;6.42;100.00;96770.22;10538782;28;20348;-66
2023/05/24 03:01:11;;;;;;;16.57;4.93;;;;;;;6.55;100.00;96770.00;10520067;28;20185;-66
2023/05/24 03:06:12;;;;;;;19.17;4.80;;;;;;;6.46;100.00;96774.19;10518107;28;20592;-66
2023/05/24 03:11:14;;;;;;;16.23;4.50;;;;;;;6.45;100.00;96784.72;10519704;28;20234;-66
2023/05/24 03:16:15;;;;;;;19.87;4.37;;;;;;;6.45;100.00;96777.75;10519313;28;20214;-66
2023/05/24 03:21:19;;;;;;;14.10;4.50;;;;;;;6.33;100.00;96797.00;10519557;28;20178;-66
2023/05/24 03:26:19;;;;;;;17.47;4.13;;;;;;;6.38;100.00;96785.22;10536908;28;20280;-66
2023/05/24 03:31:22;;;;;;;18.93;4.30;;;;;;;6.41;100.00;96789.38;10519144;28;20284;-66
2023/05/24 03:36:25;;;;;;;22.87;4.47;;;;;;;6.35;100.00;96784.69;10518567;28;20637;-66
2023/05/24 03:41:27;;;;;;;22.13;4.10;;;;;;;6.47;100.00;96790.63;10517917;28;20183;-66
2023/05/24 03:46:27;;;;;;;18.53;4.00;;;;;;;6.32;100.00;96790.13;10518015;28;20301;-66
2023/05/24 03:51:28;;;;;;;22.27;4.50;;;;;;;6.21;100.00;96794.44;10517432;28;20592;-66
2023/05/24 03:56:29;;;;;;;17.27;4.00;;;;;;;6.21;100.00;96794.44;10535382;28;20214;-66
2023/05/24 04:01:30;;;;;;;19.17;3.87;;;;;;;6.24;100.00;96790.78;10518022;28;20240;-66
2023/05/24 04:06:30;;;;;;;17.67;4.40;;;;;;;6.13;100.00;96798.66;10536052;28;20684;-66
2023/05/24 04:11:32;;;;;;;20.60;4.33;;;;;;;6.16;100.00;96806.22;10535887;28;20214;-66
2023/05/24 04:16:32;;;;;;;12.50;3.87;;;;;;;6.04;100.00;96801.03;10535353;28;20692;-66
2023/05/24 04:21:35;;;;;;;16.20;3.50;;;;;;;6.14;100.00;96813.28;10517792;28;20237;-66
2023/05/24 04:26:36;;;;;;;13.80;3.70;;;;;;;6.22;100.00;96797.91;10500661;28;20238;-66
2023/05/24 04:31:37;;;;;;;12.60;3.77;;;;;;;6.19;100.00;96811.16;10517413;28;20217;-66
2023/05/24 04:36:38;;;;;;;14.93;3.83;;;;;;;6.41;100.00;96811.00;10517346;28;20657;-66
2023/05/24 04:41:38;;;;;;;23.57;4.03;;;;;;;6.54;100.00;96815.19;10535069;28;20210;-66
2023/05/24 04:46:38;;;;;;;16.57;3.10;;;;;;;6.54;100.00;96815.19;10535168;28;20701;-66
2023/05/24 04:51:39;;;;;;;15.37;3.57;;;;;;;6.68;100.00;96833.09;10534712;28;20596;-66
2023/05/24 04:56:39;;;;;;;16.90;4.30;;;;;;;6.80;100.00;96831.22;10535145;28;20710;-66
2023/05/24 05:01:40;;;;;;;16.23;3.53;;;;;;;7.03;100.00;96833.63;10534826;28;20736;-66
2023/05/24 05:06:43;;;;;;;16.33;4.07;;;;;;;7.06;100.00;96831.59;10535097;28;20211;-66
2023/05/24 05:11:45;;;;;;;18.03;5.07;;;;;;;7.17;100.00;96840.25;10542663;28;20268;-66
2023/05/24 05:16:45;;;;;;;13.87;3.93;;;;;;;7.20;100.00;96846.06;10542108;28;20688;-67
2023/05/24 05:21:46;;;;;;;13.33;4.20;;;;;;;7.32;100.00;96852.00;10542545;28;20194;-66
2023/05/24 05:26:46;;;;;;;19.37;4.40;;;;;;;7.38;100.00;96842.81;10541776;28;20238;-66
2023/05/24 05:31:47;;;;;;;14.13;3.90;;;;;;;7.34;100.00;96839.66;10541837;28;20310;-66
2023/05/24 05:36:47;;;;;;;13.87;4.03;;;;;;;7.34;100.00;96842.25;10541608;28;20215;-66
2023/05/24 05:41:47;;;;;;;20.67;4.40;;;;;;;7.47;100.00;96837.63;10503444;28;20195;-66
2023/05/24 05:46:48;;;;;;;19.50;4.17;;;;;;;7.43;100.00;96827.59;10499664;28;20215;-66
2023/05/24 05:51:48;;;;;;;11.53;3.93;;;;;;;7.92;100.00;96825.88;10498846;28;20264;-66
2023/05/24 05:56:49;;;;;;;23.30;4.40;;;;;;;8.10;100.00;96817.34;10499094;28;20211;-66
2023/05/24 06:01:50;;;;;;;15.03;3.57;;;;;;;7.89;100.00;96823.53;10498629;28;20193;-64
2023/05/24 06:06:50;;;;;;;17.97;3.33;;;;;;;8.13;94.88;96797.03;10535468;28;20216;-63
2023/05/24 06:11:51;;;;;;;17.30;3.80;;;;;;;7.77;96.33;96814.22;10540205;28;20253;-66
2023/05/24 06:16:53;;;;;;;20.37;3.90;;;;;;;7.99;98.63;96820.91;10540011;28;20723;-66
2023/05/24 06:21:53;;;;;;;14.33;4.17;;;;;;;8.34;95.78;96822.13;10539594;28;20192;-66
2023/05/24 06:26:54;;;;;;;13.47;3.90;;;;;;;8.61;95.28;96833.69;10557726;22;20238;-64
2023/05/24 06:31:55;;;;;;;19.63;3.30;;;;;;;8.48;92.19;96813.06;10576149;28;20210;-63
2023/05/24 06:36:55;;;;;;;18.10;3.67;;;;;;;8.40;92.59;96816.34;10585248;27;20406;-63
2023/05/24 06:41:56;;;;;;;15.53;3.57;;;;;;;8.64;93.20;96828.97;10623534;27;20242;-63
2023/05/24 06:47:00;;;;;;;17.67;3.57;;;;;;;8.81;89.79;96808.31;10623533;27;20201;-63
2023/05/24 06:52:00;;;;;;;13.80;3.07;;;;;;;8.77;87.94;96801.72;10622947;27;20225;-62
2023/05/24 06:57:00;;;;;;;13.10;3.37;;;;;;;8.54;86.38;96800.28;10622800;27;20335;-63
2023/05/24 07:02:01;;;;;;;14.80;3.40;;;;;;;8.48;90.96;96842.59;10614655;27;20193;-63
2023/05/24 07:07:01;;;;;;;17.40;3.97;;;;;;;7.76;93.89;96855.09;10619961;27;20249;-62
2023/05/24 07:12:02;;;;;;;16.57;3.80;;;;;;;8.22;92.36;96850.16;10619915;27;20300;-62
2023/05/24 07:17:03;;;;;;;21.37;4.23;;;;;;;7.79;92.83;96849.59;10587932;27;20695;-63
2023/05/24 07:22:03;;;;;;;17.57;3.70;;;;;;;8.38;89.75;96820.91;10595163;27;20197;-62
2023/05/24 07:27:04;;;;;;;13.63;3.53;;;;;;;8.74;85.92;96801.06;10613713;27;20611;-61
2023/05/24 07:32:04;;;;;;;17.37;3.80;;;;;;;7.91;86.36;96818.19;10602156;27;20213;-62
2023/05/24 07:37:05;;;;;;;14.07;3.87;;;;;;;8.37;88.37;96845.34;10613362;27;20731;-62
2023/05/24 07:42:06;;;;;;;18.37;4.40;;;;;;;7.92;89.63;96851.97;10576735;28;20752;-62
2023/05/24 07:47:06;;;;;;;21.40;4.27;;;;;;;8.21;90.37;96872.84;10581314;27;20656;-63
2023/05/24 07:52:06;;;;;;;15.20;4.10;;;;;;;8.38;90.00;96875.72;10618746;27;20209;-62
2023/05/24 07:57:07;;;;;;;16.30;4.00;;;;;;;8.68;87.82;96856.47;10618525;27;20224;-62
2023/05/24 08:02:10;;;;;;;14.27;3.97;;;;;;;8.55;87.38;96866.38;10617430;27;20280;-62
2023/05/24 08:07:10;;;;;;;17.63;4.03;;;;;;;8.21;88.32;96867.63;10612743;27;20213;-62
2023/05/24 08:12:11;;;;;;;19.27;4.37;;;;;;;8.84;87.80;96866.31;10575513;28;20192;-63
2023/05/24 08:17:11;;;;;;;11.40;3.73;;;;;;;9.06;87.89;96867.75;10575543;28;20209;-61
2023/05/24 08:22:11;;;;;;;20.67;4.27;;;;;;;9.61;82.27;96817.25;10574921;28;20349;-62
2023/05/24 08:27:12;;;;;;;17.57;4.13;;;;;;;9.47;83.73;96836.06;10578690;28;20233;-61
2023/05/24 08:32:13;;;;;;;11.70;3.27;;;;;;;10.04;78.76;96798.38;10617905;28;20196;-63
2023/05/24 08:37:18;;;;;;;22.47;4.50;;;;;;;10.14;80.69;96827.91;10612846;28;20699;-62
2023/05/24 08:42:19;;;;;;;22.40;4.50;;;;;;;10.42;77.60;96807.69;10576631;28;20186;-61
2023/05/24 08:47:20;;;;;;;18.20;4.70;;;;;;;10.00;78.60;96822.22;10583096;28;20213;-62
2023/05/24 08:52:22;;;;;;;17.60;4.30;;;;;;;10.17;78.53;96812.72;10583269;28;20182;-61
2023/05/24 08:57:22;;;;;;;13.10;4.23;;;;;;;10.07;81.29;96859.06;10589761;27;20545;-62
2023/05/24 09:02:23;;;;;;;16.97;4.00;;;;;;;10.46;76.01;96802.94;10564665;28;20190;-62
2023/05/24 09:07:24;;;;;;;21.85;4.05;;;;;;;10.78;75.54;96812.84;10581697;28;20259;-62
2023/05/24 09:12:26;;;;;;;13.13;3.92;;;;;;;10.78;76.80;96825.94;10588456;27;20194;-61
2023/05/24 09:17:28;;;;;;;18.02;4.65;;;;;;;10.72;75.68;96821.31;10599414;27;20213;-62
2023/05/24 09:22:29;;;;;;;11.47;3.83;;;;;;;10.42;74.61;96814.72;10603596;27;20194;-61
2023/05/24 09:27:31;;;;;;;18.48;4.05;;;;;;;11.59;71.02;96771.31;10581514;28;20703;-61
2023/05/24 09:32:31;;;;;;;18.42;5.28;;;;;;;11.98;71.74;96798.81;10604487;27;20220;-63
2023/05/24 09:37:34;;;;;;;19.25;4.25;;;;;;;13.26;65.94;96712.09;10600841;27;20632;-63
2023/05/24 09:42:36;;;;;;;18.13;4.35;;;;;;;13.65;64.40;96713.84;10583197;27;20182;-62
2023/05/24 09:47:39;;;;;;;12.48;4.15;;;;;;;14.02;61.20;96679.81;10623498;27;20317;-62
2023/05/24 09:52:39;;;;;;;19.88;4.78;;;;;;;12.69;62.89;96688.69;10623375;27;20263;-62
2023/05/24 09:57:40;;;;;;;17.40;4.60;;;;;;;13.69;66.12;96764.31;10622362;27;20224;-62
2023/05/24 10:02:42;;;;;;;19.42;4.70;;;;;;;14.17;61.85;96719.34;10604638;27;20675;-63
2023/05/24 10:07:42;;;;;;;14.93;4.20;;;;;;;14.45;61.16;96725.63;10622565;27;20691;-62
2023/05/24 10:12:45;;;;;;;17.17;4.75;;;;;;;13.09;65.77;96790.25;10619315;27;20288;-63
2023/05/24 10:17:45;;;;;;;14.15;4.40;;;;;;;13.50;64.08;96766.41;10579733;28;20255;-62
2023/05/24 10:22:48;;;;;;;15.65;4.90;;;;;;;13.51;62.51;96730.41;10604219;27;20712;-63
2023/05/24 10:27:50;;;;;;;21.83;5.45;;;;;;;14.04;62.38;96749.75;10561575;28;20226;-64
2023/05/24 10:32:51;;;;;;;14.32;4.30;;;;;;;13.55;61.72;96750.94;10561680;28;20685;-60
2023/05/24 10:37:53;;;;;;;17.52;4.82;;;;;;;13.75;61.17;96737.28;10568339;27;20272;-63
2023/05/24 10:42:53;;;;;;;13.82;4.22;;;;;;;14.87;58.94;96731.34;10613314;27;20189;-63
2023/05/24 10:47:55;;;;;;;17.75;4.78;;;;;;;14.41;59.21;96720.91;10618932;27;20236;-63
2023/05/24 10:53:16;;;;;;;17.83;4.85;;;;;;;14.16;60.58;96765.94;10572540;27;20200;-63
2023/05/24 10:58:16;;;;;;;19.05;5.20;;;;;;;11.82;62.12;96739.19;10584458;27;20228;-63
2023/05/24 11:03:22;;;;;;;21.27;5.32;;;;;;;13.63;60.88;96752.69;10609671;27;20673;-62
2023/05/24 11:08:24;;;;;;;21.58;4.38;;;;;;;14.97;55.40;96681.72;10618401;27;20308;-63
2023/05/24 11:13:26;;;;;;;14.55;4.13;;;;;;;15.77;56.55;96736.38;10619987;27;20606;-63
2023/05/24 11:18:27;;;;;;;17.75;4.90;;;;;;;13.49;62.95;96812.16;10614314;27;20323;-63
2023/05/24 11:23:27;;;;;;;14.00;5.00;;;;;;;13.54;61.33;96764.25;10598291;27;20443;-63
2023/05/24 11:28:28;;;;;;;16.95;4.18;;;;;;;13.77;62.78;96813.47;10617943;27;20217;-62
2023/05/24 11:33:28;;;;;;;18.35;5.20;;;;;;;15.15;57.61;96754.41;10619593;27;20193;-62
2023/05/24 11:38:29;;;;;;;16.38;4.38;;;;;;;15.24;57.01;96734.81;10618667;27;20204;-62
2023/05/24 11:43:30;;;;;;;23.20;4.60;;;;;;;16.13;53.05;96680.84;10618899;27;20181;-62
2023/05/24 11:48:30;;;;;;;20.80;4.88;;;;;;;15.20;56.80;96744.09;10592193;27;20217;-62
2023/05/24 11:53:31;;;;;;;17.20;4.28;;;;;;;15.48;54.43;96703.81;10618544;27;20268;-62
2023/05/24 11:58:44;;;;;;;16.10;4.28;;;;;;;15.59;55.96;96750.00;10618524;27;20216;-62
2023/05/24 12:03:45;;;;;;;14.43;4.05;;;;;;;16.01;55.09;96732.56;10599840;27;20233;-61
2023/05/24 12:08:46;;;;;;;15.77;4.43;;;;;;;16.57;52.63;96710.63;10618357;27;20217;-62
2023/05/24 12:13:46;;;;;;;12.45;4.28;;;;;;;17.01;53.55;96743.84;10617852;27;20612;-62
2023/05/24 12:18:47;;;;;;;19.67;4.28;;;;;;;18.44;45.54;96606.84;10617042;27;20208;-62
2023/05/24 12:23:47;;;;;;;16.13;4.28;;;;;;;17.42;48.85;96660.06;10612913;27;20280;-62
2023/05/24 12:28:53;;;;;;;17.85;4.65;;;;;;;15.68;54.82;96746.25;10624960;22;20245;-65
2023/05/24 12:33:53;;;;;;;17.88;4.78;;;;;;;15.93;55.09;96753.84;10549728;28;20194;-64
2023/05/24 12:38:57;;;;;;;15.55;4.20;;;;;;;16.03;53.41;96717.34;10570393;28;20252;-65
2023/05/24 12:43:58;;;;;;;12.48;4.07;;;;;;;17.69;50.75;96716.56;10617795;28;20185;-65
2023/05/24 12:49:01;;;;;;;13.30;4.55;;;;;;;18.50;48.96;96699.66;10599313;28;20694;-66
2023/05/24 12:54:03;;;;;;;15.25;4.30;;;;;;;18.74;45.20;96632.84;10601644;28;20181;-66
2023/05/24 12:59:04;;;;;;;14.40;4.30;;;;;;;16.94;51.69;96721.84;10617723;28;20205;-64
2023/05/24 13:04:04;;;;;;;15.95;4.47;;;;;;;17.98;48.83;96690.75;10586018;28;20194;-67
2023/05/24 13:09:05;;;;;;;11.55;3.72;;;;;;;18.40;48.36;96680.69;10574934;28;20222;-67
2023/05/24 13:14:06;;;;;;;15.68;4.88;;;;;;;18.69;47.21;96667.97;10556310;28;20711;-67
2023/05/24 13:19:07;;;;;;;16.95;4.57;;;;;;;19.47;47.29;96684.81;10556191;28;20202;-67
2023/05/24 13:24:07;;;;;;;15.35;4.57;;;;;;;19.77;46.83;96682.41;10567456;28;20193;-66
2023/05/24 13:29:08;;;;;;;17.48;4.90;;;;;;;18.75;47.05;96659.19;10574511;28;20263;-67
2023/05/24 13:34:09;;;;;;;18.45;4.97;;;;;;;17.38;53.87;96767.41;10577305;28;20730;-66
2023/05/24 13:39:10;;;;;;;19.88;4.93;;;;;;;17.79;49.45;96681.72;10539242;28;20218;-67
2023/05/24 13:44:11;;;;;;;19.92;4.85;;;;;;;17.18;51.82;96717.03;10539730;28;20201;-67
2023/05/24 13:49:12;;;;;;;14.23;4.28;;;;;;;17.85;50.39;96711.91;10539953;28;20593;-65
2023/05/24 13:54:12;;;;;;;14.13;3.85;;;;;;;20.05;45.20;96657.22;10539515;28;20205;-67
2023/05/24 13:59:13;;;;;;;17.08;4.43;;;;;;;20.35;41.76;96571.41;10578440;28;20209;-65
2023/05/24 14:04:15;;;;;;;15.45;3.85;;;;;;;21.75;40.54;96600.69;10581271;28;20248;-68
2023/05/24 14:09:16;;;;;;;12.35;4.40;;;;;;;22.18;39.72;96603.00;10589554;27;20236;-66
2023/05/24 14:14:16;;;;;;;14.52;4.38;;;;;;;22.74;39.25;96610.59;10567345;27;20272;-64
2023/05/24 14:19:17;;;;;;;15.77;4.45;;;;;;;23.12;39.69;96631.41;10584527;28;20202;-65
2023/05/24 14:24:17;;;;;;;14.40;4.65;;;;;;;20.25;43.33;96609.97;10590714;28;20190;-64
2023/05/24 14:29:17;;;;;;;18.50;4.90;;;;;;;18.52;47.57;96676.38;10555666;28;20264;-66
2023/05/24 14:34:18;;;;;;;15.05;4.90;;;;;;;18.39;47.15;96660.47;10580641;28;20265;-66
2023/05/24 14:39:18;;;;;;;16.33;4.28;;;;;;;20.65;42.07;96612.22;10579507;28;20309;-66
2023/05/24 14:44:18;;;;;;;18.77;4.68;;;;;;;20.03;41.69;96574.19;10579472;28;20189;-66
2023/05/24 14:49:19;;;;;;;13.30;4.43;;;;;;;21.41;41.26;96625.16;10567051;28;20305;-67
2023/05/24 14:54:19;;;;;;;14.77;4.30;;;;;;;17.87;47.98;96665.63;10537253;28;20206;-66
2023/05/24 14:59:20;;;;;;;17.83;4.90;;;;;;;17.70;48.39;96678.44;10536682;28;20264;-67
2023/05/24 15:04:21;;;;;;;15.50;4.68;;;;;;;16.39;51.40;96708.47;10564986;28;20273;-66
2023/05/24 15:09:21;;;;;;;19.60;4.38;;;;;;;18.79;47.12;96694.91;10543550;28;20739;-66
2023/05/24 15:14:22;;;;;;;14.98;4.18;;;;;;;21.16;42.12;96649.28;10534499;28;20193;-65
2023/05/24 15:19:22;;;;;;;15.55;4.82;;;;;;;21.92;40.64;96629.09;10535854;28;20210;-65
2023/05/24 15:24:22;;;;;;;18.98;5.72;;;;;;;18.26;45.73;96626.06;10547398;28;20200;-66
2023/05/24 15:29:23;;;;;;;15.65;4.65;;;;;;;16.18;49.29;96659.13;10535303;28;20258;-66
2023/05/24 15:34:23;;;;;;;13.10;4.68;;;;;;;16.66;51.00;96727.13;10560341;27;20205;-66
2023/05/24 15:39:23;;;;;;;21.67;5.53;;;;;;;15.96;52.29;96742.91;10577509;28;20227;-66
2023/05/24 15:44:24;;;;;;;18.70;5.20;;;;;;;15.47;52.82;96725.94;10577814;28;20225;-67
2023/05/24 15:49:24;;;;;;;12.95;4.75;;;;;;;15.81;52.03;96722.66;10576826;28;20230;-67
2023/05/24 15:54:25;;;;;;;16.05;4.80;;;;;;;16.52;53.18;96769.38;10576403;28;20204;-65
2023/05/24 15:59:26;;;;;;;16.08;4.28;;;;;;;16.07;52.96;96741.56;10577259;28;20213;-67
2023/05/24 16:04:26;;;;;;;14.45;4.70;;;;;;;15.77;55.26;96783.94;10549222;28;20191;-65
2023/05/24 16:09:27;;;;;;;16.30;4.70;;;;;;;16.57;50.83;96718.56;10574524;28;20222;-66
2023/05/24 16:14:28;;;;;;;21.73;4.88;;;;;;;16.44;50.26;96699.97;10577880;28;20200;-66
2023/05/24 16:19:29;;;;;;;10.82;4.40;;;;;;;15.25;52.41;96717.16;10578045;28;20573;-66
2023/05/24 16:24:29;;;;;;;15.82;4.30;;;;;;;15.58;53.92;96770.31;10588262;28;20213;-66
2023/05/24 16:29:30;;;;;;;15.90;4.65;;;;;;;14.61;57.22;96826.72;10580510;28;20361;-66
2023/05/24 16:34:30;;;;;;;30.95;5.50;;;;;;;14.24;59.58;96858.13;10577805;28;20201;-66
2023/05/24 16:39:31;;;;;;;18.35;4.75;;;;;;;14.67;57.40;96817.25;10577252;28;20782;-65
2023/05/24 16:44:31;;;;;;;13.05;4.20;;;;;;;15.01;55.66;96789.53;10577416;28;20288;-66
2023/05/24 16:49:32;;;;;;;19.02;6.50;;;;;;;14.50;58.40;96820.03;10576920;28;20763;-65
2023/05/24 16:54:32;;;;;;;14.55;4.72;;;;;;;14.72;57.50;96807.81;10577168;28;20728;-65
2023/05/24 16:59:33;;;;;;;16.00;5.15;;;;;;;13.84;61.16;96854.75;10576668;28;20979;-66
2023/05/24 17:04:33;;;;;;;22.02;5.47;;;;;;;13.62;60.38;96837.91;10580672;28;20687;-66
2023/05/24 17:09:33;;;;;;;17.05;5.85;;;;;;;13.53;61.02;96845.03;10584813;28;20603;-66
2023/05/24 17:14:34;;;;;;;25.40;6.85;;;;;;;13.28;63.18;96877.69;10584838;28;20209;-64
2023/05/24 17:19:35;;;;;;;18.63;7.78;;;;;;;13.24;62.77;96876.38;10584405;28;20213;-66
2023/05/24 17:24:35;;;;;;;33.97;16.52;;;;;;;13.27;60.21;96834.75;10564892;28;20200;-65
2023/05/24 17:29:36;;;;;;;25.48;12.43;;;;;;;13.06;60.21;96831.84;10548226;28;20230;-66
2023/05/24 17:34:36;;;;;;;32.33;13.40;;;;;;;12.66;62.35;96863.31;10559772;28;20277;-66
2023/05/24 17:39:37;;;;;;;35.58;18.85;;;;;;;12.24;65.36;96914.22;10541188;28;20207;-66
2023/05/24 17:44:38;;;;;;;29.70;13.48;;;;;;;12.32;64.91;96912.41;10545714;28;20195;-65
2023/05/24 17:49:38;;;;;;;22.40;6.60;;;;;;;12.32;66.41;96936.06;10557828;28;20221;-65
2023/05/24 17:54:39;;;;;;;17.63;5.32;;;;;;;12.21;66.90;96938.19;10559867;28;20277;-65
2023/05/24 17:59:39;;;;;;;14.75;5.20;;;;;;;12.10;67.15;96941.94;10557126;28;20209;-64
2023/05/24 18:04:39;;;;;;;17.50;5.57;;;;;;;11.89;68.43;96969.41;10558455;28;20186;-65
2023/05/24 18:09:40;;;;;;;13.88;5.15;;;;;;;11.67;70.58;96977.81;10560357;28;20217;-65
2023/05/24 18:14:41;;;;;;;13.93;5.55;;;;;;;11.41;71.95;96995.25;10556086;28;20197;-64
2023/05/24 18:19:41;;;;;;;13.75;5.07;;;;;;;11.19;73.59;96995.75;10562420;28;20302;-64
2023/05/24 18:24:41;;;;;;;18.67;6.35;;;;;;;10.74;76.08;97012.44;10551950;28;20187;-64
2023/05/24 18:29:42;;;;;;;15.00;6.05;;;;;;;9.74;81.19;97034.06;10556381;28;20244;-65
2023/05/24 18:34:42;;;;;;;10.95;5.15;;;;;;;9.77;83.83;97019.84;10556569;28;20235;-64
2023/05/24 18:39:42;;;;;;;16.77;6.03;;;;;;;9.64;84.53;97007.91;10579039;22;20248;-63
2023/05/24 18:44:43;;;;;;;14.13;5.50;;;;;;;8.96;88.38;97021.16;10563258;28;20203;-64
2023/05/24 18:49:43;;;;;;;18.53;6.63;;;;;;;7.81;95.73;97040.69;10578951;27;20312;-65
2023/05/24 18:54:43;;;;;;;16.93;6.97;;;;;;;8.15;100.00;97037.78;10602602;27;20249;-64
2023/05/24 18:59:44;;;;;;;27.57;15.83;;;;;;;7.25;100.00;97054.94;10622414;27;20193;-64
2023/05/24 19:04:47;;;;;;;18.10;5.90;;;;;;;7.36;100.00;97063.66;10610414;27;20281;-64
2023/05/24 19:09:47;;;;;;;21.87;7.60;;;;;;;7.25;100.00;97070.56;10614496;27;20309;-64
2023/05/24 19:14:47;;;;;;;16.37;7.07;;;;;;;7.06;100.00;97057.38;10615182;27;20276;-66
2023/05/24 19:19:48;;;;;;;23.67;8.53;;;;;;;7.00;100.00;97078.72;10597196;27;20204;-66
2023/05/24 19:24:48;;;;;;;19.67;7.27;;;;;;;6.82;100.00;97084.50;10617357;27;20189;-66
2023/05/24 19:29:49;;;;;;;19.73;7.23;;;;;;;6.60;100.00;97083.63;10611381;27;20220;-66
2023/05/24 19:34:50;;;;;;;19.37;7.03;;;;;;;6.39;100.00;97096.56;10621209;27;20206;-66
2023/05/24 19:39:51;;;;;;;22.67;7.27;;;;;;;6.28;100.00;97104.38;10620923;27;20236;-66
2023/05/24 19:44:51;;;;;;;17.37;7.20;;;;;;;6.20;100.00;97110.19;10620683;27;20280;-66
2023/05/24 19:49:51;;;;;;;18.73;6.87;;;;;;;6.18;100.00;97116.44;10620604;27;20308;-66
2023/05/24 19:54:52;;;;;;;24.37;7.40;;;;;;;6.18;100.00;97122.47;10620526;27;20182;-66
2023/05/24 19:59:52;;;;;;;18.77;7.23;;;;;;;6.00;100.00;97119.53;10620417;27;20252;-66
2023/05/24 20:04:52;;;;;;;17.67;6.93;;;;;;;5.93;100.00;97118.31;10620492;27;20189;-67
2023/05/24 20:09:53;;;;;;;22.57;7.60;;;;;;;5.86;100.00;97135.31;10605169;27;20258;-66
2023/05/24 20:14:53;;;;;;;18.53;7.73;;;;;;;5.76;100.00;97136.94;10604510;27;20181;-66
2023/05/24 20:19:53;;;;;;;24.60;7.53;;;;;;;5.64;100.00;97143.91;10620122;27;20209;-65
2023/05/24 20:24:54;;;;;;;20.63;7.00;;;;;;;5.48;100.00;97136.41;10620335;27;20237;-65
2023/05/24 20:29:54;;;;;;;17.23;7.30;;;;;;;5.36;100.00;97146.78;10619977;28;20308;-66
2023/05/24 20:34:55;;;;;;;21.80;7.97;;;;;;;5.24;100.00;97152.88;10620451;28;20235;-66
2023/05/24 20:39:55;;;;;;;11.50;6.30;;;;;;;5.12;100.00;97149.41;10624203;27;20239;-66
2023/05/24 20:44:56;;;;;;;18.60;8.07;;;;;;;5.04;100.00;97156.09;10628720;27;20189;-66
2023/05/24 20:49:56;;;;;;;16.90;7.27;;;;;;;5.01;100.00;97157.16;10628119;27;20243;-65
2023/05/24 20:54:56;;;;;;;22.20;8.23;;;;;;;4.88;100.00;97161.56;10628223;27;20295;-65
2023/05/24 20:59:57;;;;;;;18.57;6.70;;;;;;;4.78;100.00;97166.59;10628238;27;20304;-65
2023/05/24 21:04:57;;;;;;;20.53;7.83;;;;;;;4.72;100.00;97180.00;10610076;27;20198;-66
2023/05/24 21:09:58;;;;;;;17.23;7.67;;;;;;;4.61;100.00;97173.78;10585146;28;20229;-66
2023/05/24 21:14:58;;;;;;;16.70;7.67;;;;;;;4.54;100.00;97182.13;10584730;28;20227;-66
2023/05/24 21:19:58;;;;;;;19.43;7.37;;;;;;;4.43;100.00;97181.09;10584823;28;20221;-66
2023/05/24 21:24:59;;;;;;;28.33;8.67;;;;;;;4.34;100.00;97176.53;10584466;28;20250;-66
2023/05/24 21:29:59;;;;;;;16.77;6.53;;;;;;;4.32;100.00;97180.16;10584030;28;20317;-66
2023/05/24 21:34:59;;;;;;;19.17;8.03;;;;;;;4.19;100.00;97181.00;10584188;28;20201;-66
2023/05/24 21:40:00;;;;;;;16.57;7.20;;;;;;;4.20;100.00;97185.28;10583511;28;20237;-65
2023/05/24 21:45:00;;;;;;;20.17;8.23;;;;;;;4.10;100.00;97192.88;10584017;28;20281;-66
2023/05/24 21:50:00;;;;;;;16.77;7.13;;;;;;;4.08;100.00;97196.47;10581910;28;20282;-66
2023/05/24 21:55:01;;;;;;;22.60;7.63;;;;;;;4.08;100.00;97199.91;10583602;28;20193;-66
2023/05/24 22:00:02;;;;;;;13.20;7.07;;;;;;;3.98;100.00;97198.88;10582984;28;20213;-66
2023/05/24 22:05:05;;;;;;;19.80;8.23;;;;;;;3.92;100.00;97196.66;10582865;28;20188;-65
2023/05/24 22:10:06;;;;;;;17.43;7.90;;;;;;;3.85;100.00;97204.03;10582773;28;20325;-66
2023/05/24 22:15:07;;;;;;;21.67;8.00;;;;;;;3.75;100.00;97203.84;10582420;28;20201;-66
2023/05/24 22:20:09;;;;;;;17.87;7.73;;;;;;;3.79;100.00;97207.03;10582401;28;20288;-66
2023/05/24 22:25:13;;;;;;;16.40;7.80;;;;;;;3.67;100.00;97206.06;10582129;28;20190;-66
2023/05/24 22:30:13;;;;;;;16.87;7.17;;;;;;;3.64;100.00;97211.47;10581767;28;20221;-66
2023/05/24 22:35:14;;;;;;;17.50;6.67;;;;;;;3.62;100.00;97217.69;10582010;28;20751;-66
2023/05/24 22:40:15;;;;;;;21.90;8.03;;;;;;;3.53;100.00;97214.75;10581214;28;20324;-66
2023/05/24 22:45:15;;;;;;;17.30;7.67;;;;;;;3.55;100.00;97231.06;10581634;28;20251;-67
2023/05/24 22:50:16;;;;;;;14.97;7.60;;;;;;;3.52;100.00;97230.41;10580943;28;20228;-67
2023/05/24 22:55:16;;;;;;;17.50;8.60;;;;;;;3.50;100.00;97224.50;10581121;28;20602;-67
2023/05/24 23:00:17;;;;;;;14.87;6.67;;;;;;;3.47;100.00;97225.53;10580589;28;20228;-66
2023/05/24 23:05:20;;;;;;;18.77;8.23;;;;;;;3.34;100.00;97224.69;10580540;28;20200;-66